createdAt,value
2022-11-29T00:01:06.502Z,7.07
2022-11-29T00:03:35.521Z,4.23
2022-11-29T00:06:06.329Z,6.50
2022-11-29T00:08:34.300Z,6.67
2022-11-29T00:11:06.915Z,5.17
2022-11-29T00:13:34.167Z,8.90
2022-11-29T00:16:06.732Z,3.90
2022-11-29T00:18:35.075Z,8.80
2022-11-29T00:21:06.750Z,7.67
2022-11-29T00:23:34.793Z,9.60
2022-11-29T00:26:08.802Z,6.53
2022-11-29T00:28:37.909Z,8.17
2022-11-29T00:31:15.664Z,7.53
2022-11-29T00:33:43.610Z,5.30
2022-11-29T00:36:11.926Z,5.07
2022-11-29T00:38:39.944Z,5.57
2022-11-29T00:41:09.715Z,4.43
2022-11-29T00:43:37.679Z,5.57
2022-11-29T00:46:06.091Z,4.90
2022-11-29T00:48:34.392Z,4.07
2022-11-29T00:51:02.476Z,5.73
2022-11-29T00:53:30.406Z,5.33
2022-11-29T00:55:58.338Z,5.40
2022-11-29T00:58:28.208Z,19.40
2022-11-29T01:00:56.365Z,12.07
2022-11-29T01:03:24.775Z,5.27
2022-11-29T01:05:52.713Z,7.03
2022-11-29T01:08:20.622Z,5.83
2022-11-29T01:10:48.498Z,4.90
2022-11-29T01:13:16.391Z,11.90
2022-11-29T01:15:45.645Z,6.40
2022-11-29T01:18:13.526Z,5.17
2022-11-29T01:20:41.393Z,3.53
2022-11-29T01:23:09.270Z,6.93
2022-11-29T01:25:37.133Z,7.50
2022-11-29T01:28:05.160Z,6.80
2022-11-29T01:30:33.081Z,5.10
2022-11-29T01:33:02.293Z,8.33
2022-11-29T01:35:30.146Z,7.80
2022-11-29T01:37:58.046Z,8.00
2022-11-29T01:40:25.921Z,8.70
2022-11-29T01:42:53.813Z,5.57
2022-11-29T01:45:25.320Z,5.07
2022-11-29T01:47:56.223Z,8.70
2022-11-29T01:50:25.878Z,4.73
2022-11-29T01:52:53.777Z,6.10
2022-11-29T01:55:21.936Z,5.47
2022-11-29T01:57:50.250Z,6.97
2022-11-29T02:00:20.513Z,6.00
2022-11-29T02:02:52.823Z,13.80
2022-11-29T02:05:22.372Z,8.30
2022-11-29T02:07:54.557Z,5.10
2022-11-29T02:10:30.372Z,5.80
2022-11-29T02:13:07.258Z,4.13
2022-11-29T02:15:46.699Z,5.60
2022-11-29T02:18:18.971Z,4.13
2022-11-29T02:21:09.071Z,5.90
2022-11-29T02:24:12.274Z,6.80
2022-11-29T02:27:02.160Z,7.80
2022-11-29T02:29:51.105Z,6.13
2022-11-29T02:32:50.886Z,2.73
2022-11-29T02:35:35.156Z,5.50
2022-11-29T02:38:19.565Z,3.73
2022-11-29T02:41:01.439Z,7.30
2022-11-29T02:43:57.868Z,3.80
2022-11-29T02:46:45.334Z,6.57
2022-11-29T02:49:22.981Z,4.27
2022-11-29T02:51:57.824Z,3.97
2022-11-29T02:54:30.800Z,3.87
2022-11-29T02:57:02.589Z,4.53
2022-11-29T02:59:46.618Z,4.00
2022-11-29T03:02:26.131Z,5.97
2022-11-29T03:05:02.532Z,6.27
2022-11-29T03:07:38.635Z,3.53
2022-11-29T03:10:12.060Z,2.60
2022-11-29T03:12:43.900Z,4.57
2022-11-29T03:15:23.782Z,6.03
2022-11-29T03:18:02.653Z,6.73
2022-11-29T03:20:42.504Z,9.70
2022-11-29T03:23:24.161Z,4.23
2022-11-29T03:25:58.485Z,6.93
2022-11-29T03:28:30.661Z,4.83
2022-11-29T03:31:06.204Z,4.93
2022-11-29T03:33:45.699Z,3.90
2022-11-29T03:36:22.626Z,8.73
2022-11-29T03:38:55.988Z,4.60
2022-11-29T03:41:29.418Z,4.20
2022-11-29T03:44:04.035Z,3.07
2022-11-29T03:46:38.394Z,2.93
2022-11-29T03:49:10.759Z,5.97
2022-11-29T03:52:00.157Z,3.90
2022-11-29T03:54:33.646Z,5.20
2022-11-29T03:57:02.256Z,5.67
2022-11-29T03:59:43.299Z,5.80
2022-11-29T04:02:52.468Z,5.13
2022-11-29T04:05:37.500Z,5.50
2022-11-29T04:08:26.147Z,3.30
2022-11-29T04:11:27.476Z,3.23
2022-11-29T04:14:19.817Z,2.90
2022-11-29T04:17:13.162Z,6.37
2022-11-29T04:20:17.211Z,3.80
2022-11-29T04:23:05.500Z,3.10
2022-11-29T04:25:54.624Z,5.03
2022-11-29T04:28:46.228Z,5.33
2022-11-29T04:31:25.696Z,6.60
2022-11-29T04:34:22.238Z,5.67
2022-11-29T04:37:15.354Z,3.70
2022-11-29T04:40:04.456Z,8.00
2022-11-29T04:42:50.257Z,4.97
2022-11-29T04:45:53.759Z,4.80
2022-11-29T04:48:41.564Z,3.13
2022-11-29T04:51:22.114Z,5.67
2022-11-29T04:53:54.977Z,3.47
2022-11-29T04:56:33.883Z,4.03
2022-11-29T04:59:08.726Z,4.23
2022-11-29T05:01:47.535Z,5.30
2022-11-29T05:04:22.061Z,5.70
2022-11-29T05:07:02.699Z,3.93
2022-11-29T05:09:43.337Z,7.03
2022-11-29T05:12:22.005Z,3.47
2022-11-29T05:15:18.491Z,4.70
2022-11-29T05:17:57.015Z,4.20
2022-11-29T05:20:37.278Z,5.40
2022-11-29T05:23:25.623Z,8.77
2022-11-29T05:25:59.084Z,3.10
2022-11-29T05:28:34.662Z,3.90
2022-11-29T05:31:22.489Z,5.63
2022-11-29T05:34:10.467Z,6.60
2022-11-29T05:36:44.143Z,5.23
2022-11-29T05:39:34.785Z,6.83
2022-11-29T05:42:30.455Z,4.33
2022-11-29T05:45:02.169Z,3.10
2022-11-29T05:47:37.745Z,5.47
2022-11-29T05:50:13.531Z,9.33
2022-11-29T05:52:51.716Z,5.70
2022-11-29T05:55:30.404Z,4.83
2022-11-29T05:58:01.831Z,4.93
2022-11-29T06:00:36.160Z,5.23
2022-11-29T06:03:15.520Z,4.50
2022-11-29T06:05:50.971Z,7.40
2022-11-29T06:08:27.945Z,9.00
2022-11-29T06:11:02.446Z,6.00
2022-11-29T06:13:43.656Z,3.03
2022-11-29T06:16:53.687Z,5.60
2022-11-29T06:19:40.647Z,10.40
2022-11-29T06:22:23.556Z,11.37
2022-11-29T06:25:06.356Z,7.80
2022-11-29T06:27:57.493Z,6.73
2022-11-29T06:30:30.955Z,5.50
2022-11-29T06:33:07.947Z,7.73
2022-11-29T06:35:45.819Z,7.30
2022-11-29T06:38:20.480Z,10.33
2022-11-29T06:40:49.746Z,6.57
2022-11-29T06:43:18.606Z,7.00
2022-11-29T06:45:50.922Z,6.33
2022-11-29T06:48:24.304Z,8.10
2022-11-29T06:51:01.432Z,7.90
2022-11-29T06:53:39.860Z,12.30
2022-11-29T06:56:17.560Z,9.43
2022-11-29T06:58:52.393Z,10.70
2022-11-29T07:01:28.481Z,7.23
2022-11-29T07:04:08.580Z,12.10
2022-11-29T07:06:39.017Z,13.73
2022-11-29T07:09:15.219Z,10.00
2022-11-29T07:11:44.261Z,7.33
2022-11-29T07:14:12.714Z,10.60
2022-11-29T07:16:57.168Z,8.17
2022-11-29T07:19:33.332Z,6.87
2022-11-29T07:22:09.803Z,7.47
2022-11-29T07:24:51.024Z,8.57
2022-11-29T07:27:22.548Z,6.57
2022-11-29T07:30:05.088Z,11.03
2022-11-29T07:32:50.158Z,9.53
2022-11-29T07:35:29.785Z,6.43
2022-11-29T07:38:09.916Z,10.67
2022-11-29T07:40:45.449Z,8.07
2022-11-29T07:43:25.360Z,8.13
2022-11-29T07:45:53.924Z,6.53
2022-11-29T07:48:21.829Z,4.33
2022-11-29T07:50:49.895Z,6.70
2022-11-29T07:53:20.855Z,7.73
2022-11-29T07:55:49.692Z,6.10
2022-11-29T07:58:18.907Z,4.87
2022-11-29T08:00:47.313Z,7.30
2022-11-29T08:03:15.274Z,8.10
2022-11-29T08:05:47.121Z,4.97
2022-11-29T08:08:15.228Z,8.00
2022-11-29T08:10:44.567Z,6.30
2022-11-29T08:13:12.459Z,9.17
2022-11-29T08:15:45.705Z,5.60
2022-11-29T08:18:13.948Z,7.93
2022-11-29T08:20:42.230Z,7.30
2022-11-29T08:23:12.041Z,6.10
2022-11-29T08:25:40.020Z,6.40
2022-11-29T08:28:09.642Z,3.70
2022-11-29T08:30:37.622Z,6.70
2022-11-29T08:33:05.884Z,6.43
2022-11-29T08:35:35.975Z,15.40
2022-11-29T08:38:04.984Z,11.50
2022-11-29T08:40:32.969Z,9.13
2022-11-29T08:43:00.848Z,18.27
2022-11-29T08:45:30.105Z,16.37
2022-11-29T08:47:58.037Z,10.37
2022-11-29T08:50:25.965Z,8.30
2022-11-29T08:53:11.422Z,10.57
2022-11-29T08:55:42.499Z,7.13
2022-11-29T08:58:12.325Z,8.60
2022-11-29T09:00:43.476Z,8.37
2022-11-29T09:03:28.932Z,9.93
2022-11-29T09:05:57.541Z,7.03
2022-11-29T09:08:25.483Z,13.33
2022-11-29T09:10:53.366Z,11.83
2022-11-29T09:13:21.301Z,6.20
2022-11-29T09:15:50.520Z,13.97
2022-11-29T09:18:18.405Z,7.93
2022-11-29T09:20:46.263Z,10.20
2022-11-29T09:23:14.119Z,7.43
2022-11-29T09:25:42.057Z,9.70
2022-11-29T09:28:11.339Z,8.07
2022-11-29T09:30:39.200Z,8.80
2022-11-29T09:33:08.519Z,4.97
2022-11-29T09:35:36.400Z,13.40
2022-11-29T09:38:04.327Z,6.23
2022-11-29T09:40:38.048Z,7.40
2022-11-29T09:43:10.512Z,8.80
2022-11-29T09:45:43.367Z,5.53
2022-11-29T09:48:48.571Z,9.00
2022-11-29T09:51:25.282Z,7.93
2022-11-29T09:54:04.930Z,8.30
2022-11-29T09:56:37.681Z,6.00
2022-11-29T09:59:10.730Z,6.20
2022-11-29T10:01:41.727Z,11.47
2022-11-29T10:04:17.854Z,5.20
2022-11-29T10:06:51.248Z,9.83
2022-11-29T10:09:28.371Z,7.53
2022-11-29T10:12:05.056Z,9.70
2022-11-29T10:14:40.095Z,8.20
2022-11-29T10:17:21.175Z,7.73
2022-11-29T10:19:56.132Z,9.77
2022-11-29T10:22:28.391Z,9.73
2022-11-29T10:25:00.231Z,8.37
2022-11-29T10:27:29.654Z,7.90
2022-11-29T10:29:59.220Z,8.83
2022-11-29T10:32:30.867Z,8.20
2022-11-29T10:35:01.573Z,9.90
2022-11-29T10:37:32.697Z,9.50
2022-11-29T10:40:07.440Z,7.77
2022-11-29T10:42:50.246Z,15.37
2022-11-29T10:45:22.274Z,8.50
2022-11-29T10:47:52.088Z,8.00
2022-11-29T10:50:25.854Z,11.23
2022-11-29T10:52:59.925Z,10.23
2022-11-29T10:55:32.239Z,11.90
2022-11-29T10:58:15.511Z,11.17
2022-11-29T11:00:54.827Z,10.93
2022-11-29T11:03:39.320Z,14.17
2022-11-29T11:06:12.342Z,14.80
2022-11-29T11:08:43.751Z,9.60
2022-11-29T11:11:12.647Z,11.07
2022-11-29T11:13:41.524Z,9.17
2022-11-29T11:16:15.598Z,10.80
2022-11-29T11:18:44.399Z,15.93
2022-11-29T11:21:15.435Z,11.57
2022-11-29T11:23:52.064Z,10.70
2022-11-29T11:26:20.591Z,11.93
2022-11-29T11:28:53.216Z,12.60
2022-11-29T11:31:29.801Z,13.13
2022-11-29T11:33:58.287Z,9.83
2022-11-29T11:36:28.379Z,8.30
2022-11-29T11:38:57.989Z,10.37
2022-11-29T11:41:45.339Z,11.47
2022-11-29T11:44:46.539Z,8.97
2022-11-29T11:47:18.795Z,8.47
2022-11-29T11:49:52.063Z,11.27
2022-11-29T11:52:25.375Z,11.47
2022-11-29T11:54:58.414Z,11.27
2022-11-29T11:57:27.827Z,11.70
2022-11-29T12:00:03.432Z,14.53
2022-11-29T12:02:39.742Z,9.87
2022-11-29T12:05:14.289Z,8.13
2022-11-29T12:10:39.774Z,6.10
2022-11-29T12:13:16.093Z,7.30
2022-11-29T12:15:49.633Z,4.67
2022-11-29T12:18:25.825Z,6.60
2022-11-29T12:20:58.045Z,7.67
2022-11-29T12:23:36.397Z,9.00
2022-11-29T12:26:13.718Z,9.67
2022-11-29T12:28:48.266Z,11.07
2022-11-29T12:31:26.752Z,6.97
2022-11-29T12:34:08.209Z,7.60
2022-11-29T12:36:42.459Z,6.50
2022-11-29T12:39:26.638Z,6.17
2022-11-29T12:42:00.057Z,7.30
2022-11-29T12:44:42.448Z,5.83
2022-11-29T12:47:37.926Z,8.10
2022-11-29T12:50:37.540Z,6.37
2022-11-29T12:53:25.489Z,7.90
2022-11-29T12:56:08.409Z,10.73
2022-11-29T12:58:50.280Z,10.47
2022-11-29T13:01:30.578Z,6.97
2022-11-29T13:04:07.259Z,8.23
2022-11-29T13:06:45.359Z,4.63
2022-11-29T13:09:38.759Z,6.80
2022-11-29T13:12:15.673Z,7.13
2022-11-29T13:14:51.154Z,6.13
2022-11-29T13:17:30.307Z,6.60
2022-11-29T13:20:03.268Z,5.77
2022-11-29T13:22:38.700Z,6.87
2022-11-29T13:25:18.147Z,7.83
2022-11-29T13:27:53.939Z,8.77
2022-11-29T13:30:21.996Z,8.60
2022-11-29T13:32:57.716Z,8.53
2022-11-29T13:35:31.391Z,6.87
2022-11-29T13:38:04.618Z,9.17
2022-11-29T13:40:38.300Z,11.03
2022-11-29T13:43:16.932Z,10.40
2022-11-29T13:45:51.016Z,10.50
2022-11-29T13:48:33.753Z,11.03
2022-11-29T13:51:24.459Z,6.77
2022-11-29T13:53:53.839Z,13.07
2022-11-29T13:56:33.366Z,12.57
2022-11-29T13:59:08.042Z,7.87
2022-11-29T14:01:46.630Z,7.30
2022-11-29T14:04:27.345Z,8.27
2022-11-29T14:07:11.003Z,7.40
2022-11-29T14:10:00.343Z,6.07
2022-11-29T14:12:38.283Z,13.97
2022-11-29T14:15:22.554Z,8.53
2022-11-29T14:17:56.932Z,7.90
2022-11-29T14:20:58.776Z,8.83
2022-11-29T14:23:35.232Z,8.30
2022-11-29T14:26:30.713Z,14.87
2022-11-29T14:28:59.988Z,10.07
2022-11-29T14:31:52.140Z,7.63
2022-11-29T14:34:44.894Z,8.67
2022-11-29T14:37:45.135Z,8.73
2022-11-29T14:40:23.808Z,9.83
2022-11-29T14:42:52.748Z,14.37
2022-11-29T14:45:27.208Z,11.50
2022-11-29T14:47:57.336Z,10.80
2022-11-29T14:50:36.828Z,12.47
2022-11-29T14:53:05.983Z,9.27
2022-11-29T14:55:36.651Z,10.27
2022-11-29T14:58:21.264Z,9.27
2022-11-29T15:01:10.576Z,10.83
2022-11-29T15:03:47.642Z,10.47
2022-11-29T15:06:23.212Z,12.23
2022-11-29T15:09:01.055Z,15.93
2022-11-29T15:11:36.356Z,11.60
2022-11-29T15:14:07.330Z,11.53
2022-11-29T15:16:51.425Z,11.50
2022-11-29T15:19:47.585Z,11.93
2022-11-29T15:22:18.563Z,8.00
2022-11-29T15:24:54.622Z,9.33
2022-11-29T15:27:23.495Z,9.90
2022-11-29T15:29:52.734Z,11.93
2022-11-29T15:32:25.775Z,13.07
2022-11-29T15:34:56.606Z,14.13
2022-11-29T15:37:26.573Z,11.80
2022-11-29T15:40:07.427Z,15.13
2022-11-29T15:42:41.728Z,15.73
2022-11-29T15:45:27.651Z,17.53
2022-11-29T15:47:56.479Z,14.00
2022-11-29T15:50:27.551Z,14.60
2022-11-29T15:53:01.027Z,16.23
2022-11-29T15:55:29.720Z,15.27
2022-11-29T15:58:05.384Z,16.70
2022-11-29T16:00:36.893Z,17.33
2022-11-29T16:03:06.149Z,17.77
2022-11-29T16:05:37.853Z,17.70
2022-11-29T16:08:09.234Z,20.23
2022-11-29T16:10:43.418Z,22.57
2022-11-29T16:13:32.813Z,18.80
2022-11-29T16:16:15.391Z,21.80
2022-11-29T16:18:45.168Z,22.03
2022-11-29T16:21:33.038Z,19.83
2022-11-29T16:24:13.211Z,18.70
2022-11-29T16:26:44.420Z,17.70
2022-11-29T16:29:24.404Z,19.07
2022-11-29T16:31:53.148Z,19.60
2022-11-29T16:34:26.997Z,23.03
2022-11-29T16:37:05.126Z,22.90
2022-11-29T16:39:33.891Z,19.60
2022-11-29T16:42:16.578Z,23.90
2022-11-29T16:44:57.744Z,25.03
2022-11-29T16:47:28.260Z,28.90
2022-11-29T16:50:15.067Z,25.83
2022-11-29T16:52:44.445Z,25.40
2022-11-29T16:55:12.695Z,21.47
2022-11-29T16:57:41.252Z,24.57
2022-11-29T17:00:12.794Z,25.33
2022-11-29T17:02:40.687Z,24.73
2022-11-29T17:05:09.681Z,23.30
2022-11-29T17:07:39.545Z,26.20
2022-11-29T17:10:14.035Z,23.63
2022-11-29T17:12:47.655Z,23.57
2022-11-29T17:15:16.186Z,28.80
2022-11-29T17:17:44.516Z,27.50
2022-11-29T17:20:13.669Z,27.17
2022-11-29T17:22:41.816Z,23.70
2022-11-29T17:25:12.253Z,27.40
2022-11-29T17:27:40.182Z,28.10
2022-11-29T17:30:11.270Z,23.60
2022-11-29T17:32:39.238Z,29.03
2022-11-29T17:35:07.745Z,21.23
2022-11-29T17:37:35.609Z,24.47
2022-11-29T17:40:03.501Z,25.40
2022-11-29T17:42:32.771Z,26.80
2022-11-29T17:45:00.610Z,23.17
2022-11-29T17:47:28.480Z,23.97
2022-11-29T17:49:56.348Z,23.53
2022-11-29T17:52:24.240Z,29.60
2022-11-29T17:54:52.092Z,22.50
2022-11-29T17:57:20.003Z,22.37
2022-11-29T17:59:49.214Z,22.43
2022-11-29T18:02:17.161Z,22.73
2022-11-29T18:04:45.375Z,26.57
2022-11-29T18:07:15.779Z,25.23
2022-11-29T18:09:44.196Z,22.20
2022-11-29T18:12:12.363Z,23.63
2022-11-29T18:14:41.293Z,21.97
2022-11-29T18:17:10.692Z,20.53
2022-11-29T18:19:38.636Z,21.77
2022-11-29T18:22:06.551Z,23.00
2022-11-29T18:24:34.497Z,23.40
2022-11-29T18:27:02.356Z,27.67
2022-11-29T18:29:45.889Z,23.57
2022-11-29T18:32:15.192Z,27.07
2022-11-29T18:34:43.045Z,25.60
2022-11-29T18:37:16.211Z,21.37
2022-11-29T18:39:48.584Z,25.10
2022-11-29T18:42:16.498Z,21.13
2022-11-29T18:44:44.734Z,22.73
2022-11-29T18:47:12.777Z,25.57
2022-11-29T18:49:42.042Z,21.30
2022-11-29T18:52:10.256Z,24.60
2022-11-29T18:54:38.120Z,24.00
2022-11-29T18:57:05.969Z,21.43
2022-11-29T18:59:33.802Z,23.60
2022-11-29T19:02:01.652Z,23.63
2022-11-29T19:04:29.507Z,23.83
2022-11-29T19:06:58.704Z,24.17
2022-11-29T19:09:26.787Z,23.77
2022-11-29T19:11:54.641Z,25.03
2022-11-29T19:14:22.509Z,20.97
2022-11-29T19:16:51.022Z,21.17
2022-11-29T19:19:19.746Z,18.70
2022-11-29T19:21:47.895Z,24.20
2022-11-29T19:24:18.714Z,30.27
2022-11-29T19:26:48.314Z,24.50
2022-11-29T19:29:17.119Z,23.90
2022-11-29T19:31:46.135Z,24.50
2022-11-29T19:34:14.269Z,24.03
2022-11-29T19:36:44.501Z,23.77
2022-11-29T19:39:13.977Z,24.13
2022-11-29T19:41:44.631Z,23.13
2022-11-29T19:44:13.286Z,27.13
2022-11-29T19:46:43.403Z,29.47
2022-11-29T19:49:11.641Z,26.03
2022-11-29T19:51:39.668Z,21.43
2022-11-29T19:54:09.702Z,23.43
2022-11-29T19:56:38.144Z,21.70
2022-11-29T19:59:09.181Z,22.63
2022-11-29T20:01:42.415Z,25.23
2022-11-29T20:04:13.061Z,24.63
2022-11-29T20:06:41.910Z,27.90
2022-11-29T20:09:10.366Z,29.63
2022-11-29T20:11:38.329Z,31.07
2022-11-29T20:14:08.829Z,25.20
2022-11-29T20:16:38.906Z,26.67
2022-11-29T20:19:10.668Z,27.23
2022-11-29T20:21:42.276Z,23.93
2022-11-29T20:24:10.331Z,28.47
2022-11-29T20:26:40.760Z,25.30
2022-11-29T20:29:11.041Z,27.47
2022-11-29T20:31:44.372Z,27.80
2022-11-29T20:34:16.205Z,27.43
2022-11-29T20:37:06.717Z,26.40
2022-11-29T20:39:42.119Z,27.40
2022-11-29T20:42:27.521Z,29.10
2022-11-29T20:44:59.762Z,24.27
2022-11-29T20:47:33.418Z,29.03
2022-11-29T20:50:01.657Z,24.03
2022-11-29T20:52:38.500Z,30.87
2022-11-29T20:55:07.062Z,31.60
2022-11-29T20:57:35.046Z,27.63
2022-11-29T21:00:04.927Z,33.10
2022-11-29T21:02:32.801Z,31.63
2022-11-29T21:05:00.663Z,25.97
2022-11-29T21:07:29.197Z,28.83
2022-11-29T21:10:01.174Z,34.33
2022-11-29T21:12:30.486Z,28.10
2022-11-29T21:14:58.977Z,31.47
2022-11-29T21:17:33.349Z,32.70
2022-11-29T21:20:02.003Z,30.03
2022-11-29T21:22:38.932Z,26.40
2022-11-29T21:25:15.002Z,28.07
2022-11-29T21:27:43.407Z,30.40
2022-11-29T21:30:18.950Z,30.20
2022-11-29T21:32:49.232Z,30.30
2022-11-29T21:35:17.523Z,29.07
2022-11-29T21:37:46.070Z,31.27
2022-11-29T21:40:15.434Z,35.33
2022-11-29T21:42:43.396Z,32.07
2022-11-29T21:45:15.531Z,34.17
2022-11-29T21:47:44.934Z,30.60
2022-11-29T21:50:14.502Z,33.10
2022-11-29T21:52:44.217Z,28.57
2022-11-29T21:55:12.162Z,30.70
2022-11-29T21:57:40.126Z,27.73
2022-11-29T22:00:09.316Z,30.90
2022-11-29T22:02:37.265Z,39.93
2022-11-29T22:05:06.966Z,30.47
2022-11-29T22:07:36.213Z,28.90
2022-11-29T22:10:11.591Z,34.60
2022-11-29T22:12:51.408Z,30.23
2022-11-29T22:15:24.475Z,30.53
2022-11-29T22:17:52.904Z,28.97
2022-11-29T22:20:20.794Z,28.90
2022-11-29T22:22:50.140Z,30.77
2022-11-29T22:25:18.595Z,34.53
2022-11-29T22:27:46.443Z,30.20
2022-11-29T22:30:14.583Z,34.53
2022-11-29T22:32:42.424Z,32.67
2022-11-29T22:35:10.548Z,33.80
2022-11-29T22:37:38.401Z,31.60
2022-11-29T22:40:09.170Z,30.33
2022-11-29T22:42:37.030Z,31.37
2022-11-29T22:45:05.424Z,29.93
2022-11-29T22:47:33.287Z,36.03
2022-11-29T22:50:01.148Z,35.17
2022-11-29T22:52:28.995Z,29.07
2022-11-29T22:55:01.295Z,29.33
2022-11-29T22:57:33.586Z,32.70
2022-11-29T23:00:01.437Z,29.47
2022-11-29T23:02:29.386Z,29.03
2022-11-29T23:04:57.297Z,35.17
2022-11-29T23:07:25.244Z,27.20
2022-11-29T23:09:55.038Z,27.73
2022-11-29T23:12:22.943Z,27.80
2022-11-29T23:14:56.316Z,25.90
2022-11-29T23:17:24.614Z,31.20
2022-11-29T23:19:52.450Z,29.67
2022-11-29T23:22:20.330Z,30.57
2022-11-29T23:24:48.403Z,28.10
2022-11-29T23:27:16.411Z,29.33
2022-11-29T23:29:44.252Z,29.03
2022-11-29T23:32:13.460Z,28.27
2022-11-29T23:34:41.308Z,30.87
2022-11-29T23:37:09.636Z,36.83
2022-11-29T23:39:37.479Z,27.13
2022-11-29T23:42:05.637Z,26.53
2022-11-29T23:44:33.470Z,29.40
2022-11-29T23:47:01.325Z,29.33
2022-11-29T23:49:30.840Z,31.13
2022-11-29T23:51:58.685Z,31.90
2022-11-29T23:54:26.529Z,32.43
2022-11-29T23:56:54.370Z,31.20
2022-11-29T23:59:22.215Z,29.80
